sensor_id;sensor_type;location;lat;lon;timestamp;temperature;humidity
65064;DHT22;51654;51.452;6.644;2022-11-27T00:01:26;3.80;81.30
65064;DHT22;51654;51.452;6.644;2022-11-27T00:03:53;3.80;81.30
65064;DHT22;51654;51.452;6.644;2022-11-27T00:06:22;3.90;81.30
65064;DHT22;51654;51.452;6.644;2022-11-27T00:08:49;3.80;81.10
65064;DHT22;51654;51.452;6.644;2022-11-27T00:11:17;3.90;80.90
65064;DHT22;51654;51.452;6.644;2022-11-27T00:13:44;3.80;80.80
65064;DHT22;51654;51.452;6.644;2022-11-27T00:16:12;3.90;80.70
65064;DHT22;51654;51.452;6.644;2022-11-27T00:18:39;3.90;80.60
65064;DHT22;51654;51.452;6.644;2022-11-27T00:21:07;3.80;80.60
65064;DHT22;51654;51.452;6.644;2022-11-27T00:23:34;3.80;80.60
65064;DHT22;51654;51.452;6.644;2022-11-27T00:26:01;3.80;80.60
65064;DHT22;51654;51.452;6.644;2022-11-27T00:28:28;3.80;80.60
65064;DHT22;51654;51.452;6.644;2022-11-27T00:31:02;3.80;80.70
65064;DHT22;51654;51.452;6.644;2022-11-27T00:33:29;3.80;80.70
65064;DHT22;51654;51.452;6.644;2022-11-27T00:35:55;3.80;80.70
65064;DHT22;51654;51.452;6.644;2022-11-27T00:38:22;3.80;80.70
65064;DHT22;51654;51.452;6.644;2022-11-27T00:40:49;3.80;80.60
65064;DHT22;51654;51.452;6.644;2022-11-27T00:43:15;3.70;80.60
65064;DHT22;51654;51.452;6.644;2022-11-27T00:45:42;3.80;80.60
65064;DHT22;51654;51.452;6.644;2022-11-27T00:48:13;3.80;80.50
65064;DHT22;51654;51.452;6.644;2022-11-27T00:50:40;3.80;80.50
65064;DHT22;51654;51.452;6.644;2022-11-27T00:53:07;3.80;80.40
65064;DHT22;51654;51.452;6.644;2022-11-27T00:55:34;3.80;80.40
65064;DHT22;51654;51.452;6.644;2022-11-27T00:58:00;3.80;80.40
65064;DHT22;51654;51.452;6.644;2022-11-27T01:00:27;3.80;80.20
65064;DHT22;51654;51.452;6.644;2022-11-27T01:02:54;3.80;80.20
65064;DHT22;51654;51.452;6.644;2022-11-27T01:05:21;3.70;80.10
65064;DHT22;51654;51.452;6.644;2022-11-27T01:07:48;3.80;80.10
65064;DHT22;51654;51.452;6.644;2022-11-27T01:10:15;3.80;80.10
65064;DHT22;51654;51.452;6.644;2022-11-27T01:12:42;3.80;80.10
65064;DHT22;51654;51.452;6.644;2022-11-27T01:15:09;3.70;80.20
65064;DHT22;51654;51.452;6.644;2022-11-27T01:17:36;3.70;80.20
65064;DHT22;51654;51.452;6.644;2022-11-27T01:20:03;3.70;80.20
65064;DHT22;51654;51.452;6.644;2022-11-27T01:22:30;3.70;80.40
65064;DHT22;51654;51.452;6.644;2022-11-27T01:24:56;3.70;80.50
65064;DHT22;51654;51.452;6.644;2022-11-27T01:27:23;3.70;80.40
65064;DHT22;51654;51.452;6.644;2022-11-27T01:29:50;3.70;80.30
65064;DHT22;51654;51.452;6.644;2022-11-27T01:32:17;3.70;80.30
65064;DHT22;51654;51.452;6.644;2022-11-27T01:34:43;3.60;80.30
65064;DHT22;51654;51.452;6.644;2022-11-27T01:37:10;3.60;80.30
65064;DHT22;51654;51.452;6.644;2022-11-27T01:39:37;3.70;80.20
65064;DHT22;51654;51.452;6.644;2022-11-27T01:42:04;3.60;80.20
65064;DHT22;51654;51.452;6.644;2022-11-27T01:47:25;3.60;80.30
65064;DHT22;51654;51.452;6.644;2022-11-27T01:49:49;3.60;80.20
65064;DHT22;51654;51.452;6.644;2022-11-27T01:52:26;3.60;80.20
65064;DHT22;51654;51.452;6.644;2022-11-27T01:55:16;3.50;80.10
65064;DHT22;51654;51.452;6.644;2022-11-27T01:57:49;3.50;80.20
65064;DHT22;51654;51.452;6.644;2022-11-27T02:00:17;3.50;80.10
65064;DHT22;51654;51.452;6.644;2022-11-27T02:02:44;3.50;80.20
65064;DHT22;51654;51.452;6.644;2022-11-27T02:05:21;3.50;80.10
65064;DHT22;51654;51.452;6.644;2022-11-27T02:07:50;3.50;80.10
65064;DHT22;51654;51.452;6.644;2022-11-27T02:10:18;3.40;80.10
65064;DHT22;51654;51.452;6.644;2022-11-27T02:12:58;3.50;80.10
65064;DHT22;51654;51.452;6.644;2022-11-27T02:15:29;3.50;80.10
65064;DHT22;51654;51.452;6.644;2022-11-27T02:18:06;3.50;80.20
65064;DHT22;51654;51.452;6.644;2022-11-27T02:20:49;3.40;80.20
65064;DHT22;51654;51.452;6.644;2022-11-27T02:23:52;3.50;80.20
65064;DHT22;51654;51.452;6.644;2022-11-27T02:29:13;3.40;80.20
65064;DHT22;51654;51.452;6.644;2022-11-27T02:31:48;3.40;80.20
65064;DHT22;51654;51.452;6.644;2022-11-27T02:34:45;3.40;80.20
65064;DHT22;51654;51.452;6.644;2022-11-27T02:40:12;3.30;80.30
65064;DHT22;51654;51.452;6.644;2022-11-27T02:42:43;3.30;80.30
65064;DHT22;51654;51.452;6.644;2022-11-27T02:45:16;3.30;80.30
65064;DHT22;51654;51.452;6.644;2022-11-27T02:47:44;3.20;80.30
65064;DHT22;51654;51.452;6.644;2022-11-27T02:50:13;3.20;80.40
65064;DHT22;51654;51.452;6.644;2022-11-27T02:52:40;3.20;80.40
65064;DHT22;51654;51.452;6.644;2022-11-27T02:55:08;3.20;80.50
65064;DHT22;51654;51.452;6.644;2022-11-27T02:57:36;3.20;80.40
65064;DHT22;51654;51.452;6.644;2022-11-27T03:00:04;3.20;80.40
65064;DHT22;51654;51.452;6.644;2022-11-27T03:02:33;3.20;80.40
65064;DHT22;51654;51.452;6.644;2022-11-27T03:05:01;3.10;80.40
65064;DHT22;51654;51.452;6.644;2022-11-27T03:07:40;3.20;80.40
65064;DHT22;51654;51.452;6.644;2022-11-27T03:10:17;3.20;80.40
65064;DHT22;51654;51.452;6.644;2022-11-27T03:12:45;3.20;80.20
65064;DHT22;51654;51.452;6.644;2022-11-27T03:15:13;3.20;80.20
65064;DHT22;51654;51.452;6.644;2022-11-27T03:17:46;3.20;80.30
65064;DHT22;51654;51.452;6.644;2022-11-27T03:20:22;3.20;80.20
65064;DHT22;51654;51.452;6.644;2022-11-27T03:22:51;3.20;80.30
65064;DHT22;51654;51.452;6.644;2022-11-27T03:25:18;3.20;80.30
65064;DHT22;51654;51.452;6.644;2022-11-27T03:27:46;3.20;80.30
65064;DHT22;51654;51.452;6.644;2022-11-27T03:30:14;3.20;80.30
65064;DHT22;51654;51.452;6.644;2022-11-27T03:32:41;3.20;80.30
65064;DHT22;51654;51.452;6.644;2022-11-27T03:35:08;3.20;80.20
65064;DHT22;51654;51.452;6.644;2022-11-27T03:37:37;3.20;80.30
65064;DHT22;51654;51.452;6.644;2022-11-27T03:40:04;3.20;80.20
65064;DHT22;51654;51.452;6.644;2022-11-27T03:45:04;3.20;80.10
65064;DHT22;51654;51.452;6.644;2022-11-27T03:47:41;3.20;80.10
65064;DHT22;51654;51.452;6.644;2022-11-27T03:52:51;3.20;79.90
65064;DHT22;51654;51.452;6.644;2022-11-27T03:55:22;3.20;79.90
65064;DHT22;51654;51.452;6.644;2022-11-27T03:57:53;3.20;79.90
65064;DHT22;51654;51.452;6.644;2022-11-27T04:00:21;3.20;79.80
65064;DHT22;51654;51.452;6.644;2022-11-27T04:02:49;3.20;79.80
65064;DHT22;51654;51.452;6.644;2022-11-27T04:05:17;3.20;79.70
65064;DHT22;51654;51.452;6.644;2022-11-27T04:07:44;3.20;79.70
65064;DHT22;51654;51.452;6.644;2022-11-27T04:10:10;3.20;79.60
65064;DHT22;51654;51.452;6.644;2022-11-27T04:12:37;3.20;79.40
65064;DHT22;51654;51.452;6.644;2022-11-27T04:15:04;3.20;79.50
65064;DHT22;51654;51.452;6.644;2022-11-27T04:17:31;3.20;79.50
65064;DHT22;51654;51.452;6.644;2022-11-27T04:19:58;3.20;79.40
65064;DHT22;51654;51.452;6.644;2022-11-27T04:22:25;3.20;79.40
65064;DHT22;51654;51.452;6.644;2022-11-27T04:24:51;3.20;79.40
65064;DHT22;51654;51.452;6.644;2022-11-27T04:27:18;3.20;79.50
65064;DHT22;51654;51.452;6.644;2022-11-27T04:29:45;3.30;79.50
65064;DHT22;51654;51.452;6.644;2022-11-27T04:32:11;3.30;79.30
65064;DHT22;51654;51.452;6.644;2022-11-27T04:34:38;3.20;79.20
65064;DHT22;51654;51.452;6.644;2022-11-27T04:37:05;3.30;79.20
65064;DHT22;51654;51.452;6.644;2022-11-27T04:39:32;3.30;79.00
65064;DHT22;51654;51.452;6.644;2022-11-27T04:41:59;3.30;79.00
65064;DHT22;51654;51.452;6.644;2022-11-27T04:44:25;3.30;78.90
65064;DHT22;51654;51.452;6.644;2022-11-27T04:46:52;3.20;78.90
65064;DHT22;51654;51.452;6.644;2022-11-27T04:49:19;3.30;79.00
65064;DHT22;51654;51.452;6.644;2022-11-27T04:51:46;3.30;78.90
65064;DHT22;51654;51.452;6.644;2022-11-27T04:54:13;3.30;78.80
65064;DHT22;51654;51.452;6.644;2022-11-27T04:56:40;3.30;78.70
65064;DHT22;51654;51.452;6.644;2022-11-27T04:59:06;3.30;78.70
65064;DHT22;51654;51.452;6.644;2022-11-27T05:01:33;3.30;78.60
65064;DHT22;51654;51.452;6.644;2022-11-27T05:04:00;3.20;78.50
65064;DHT22;51654;51.452;6.644;2022-11-27T05:06:27;3.30;78.60
65064;DHT22;51654;51.452;6.644;2022-11-27T05:08:54;3.20;78.50
65064;DHT22;51654;51.452;6.644;2022-11-27T05:11:28;3.20;78.60
65064;DHT22;51654;51.452;6.644;2022-11-27T05:13:55;3.20;78.60
65064;DHT22;51654;51.452;6.644;2022-11-27T05:16:50;3.20;78.60
65064;DHT22;51654;51.452;6.644;2022-11-27T05:19:18;3.20;78.70
65064;DHT22;51654;51.452;6.644;2022-11-27T05:21:45;3.20;78.70
65064;DHT22;51654;51.452;6.644;2022-11-27T05:24:13;3.20;78.80
65064;DHT22;51654;51.452;6.644;2022-11-27T05:26:40;3.20;78.70
65064;DHT22;51654;51.452;6.644;2022-11-27T05:29:09;3.20;78.80
65064;DHT22;51654;51.452;6.644;2022-11-27T05:31:36;3.20;78.80
65064;DHT22;51654;51.452;6.644;2022-11-27T05:34:04;3.20;78.80
65064;DHT22;51654;51.452;6.644;2022-11-27T05:36:32;3.20;78.70
65064;DHT22;51654;51.452;6.644;2022-11-27T05:39:00;3.20;78.60
65064;DHT22;51654;51.452;6.644;2022-11-27T05:41:27;3.30;78.50
65064;DHT22;51654;51.452;6.644;2022-11-27T05:43:54;3.20;78.50
65064;DHT22;51654;51.452;6.644;2022-11-27T05:46:22;3.30;78.40
65064;DHT22;51654;51.452;6.644;2022-11-27T05:48:49;3.30;78.30
65064;DHT22;51654;51.452;6.644;2022-11-27T05:51:17;3.30;78.20
65064;DHT22;51654;51.452;6.644;2022-11-27T05:53:44;3.30;78.30
65064;DHT22;51654;51.452;6.644;2022-11-27T05:56:14;3.30;78.40
65064;DHT22;51654;51.452;6.644;2022-11-27T05:58:43;3.30;78.30
65064;DHT22;51654;51.452;6.644;2022-11-27T06:01:12;3.20;78.30
65064;DHT22;51654;51.452;6.644;2022-11-27T06:03:40;3.30;78.20
65064;DHT22;51654;51.452;6.644;2022-11-27T06:06:08;3.30;78.20
65064;DHT22;51654;51.452;6.644;2022-11-27T06:08:36;3.30;78.00
65064;DHT22;51654;51.452;6.644;2022-11-27T06:11:07;3.30;77.90
65064;DHT22;51654;51.452;6.644;2022-11-27T06:13:34;3.30;78.10
65064;DHT22;51654;51.452;6.644;2022-11-27T06:16:07;3.30;78.10
65064;DHT22;51654;51.452;6.644;2022-11-27T06:18:34;3.30;78.00
65064;DHT22;51654;51.452;6.644;2022-11-27T06:21:05;3.30;77.90
65064;DHT22;51654;51.452;6.644;2022-11-27T06:23:32;3.30;77.90
65064;DHT22;51654;51.452;6.644;2022-11-27T06:26:16;3.30;78.00
65064;DHT22;51654;51.452;6.644;2022-11-27T06:28:44;3.30;77.90
65064;DHT22;51654;51.452;6.644;2022-11-27T06:31:12;3.30;77.80
65064;DHT22;51654;51.452;6.644;2022-11-27T06:33:44;3.30;77.90
65064;DHT22;51654;51.452;6.644;2022-11-27T06:36:11;3.30;77.90
65064;DHT22;51654;51.452;6.644;2022-11-27T06:38:38;3.30;77.80
65064;DHT22;51654;51.452;6.644;2022-11-27T06:41:06;3.30;77.70
65064;DHT22;51654;51.452;6.644;2022-11-27T06:43:33;3.30;77.80
65064;DHT22;51654;51.452;6.644;2022-11-27T06:46:00;3.30;77.90
65064;DHT22;51654;51.452;6.644;2022-11-27T06:48:28;3.30;77.70
65064;DHT22;51654;51.452;6.644;2022-11-27T06:50:59;3.30;77.60
65064;DHT22;51654;51.452;6.644;2022-11-27T06:53:27;3.30;77.70
65064;DHT22;51654;51.452;6.644;2022-11-27T06:55:53;3.30;77.70
65064;DHT22;51654;51.452;6.644;2022-11-27T06:58:20;3.30;77.60
65064;DHT22;51654;51.452;6.644;2022-11-27T07:01:00;3.30;77.60
65064;DHT22;51654;51.452;6.644;2022-11-27T07:03:27;3.40;77.50
65064;DHT22;51654;51.452;6.644;2022-11-27T07:05:54;3.40;77.50
65064;DHT22;51654;51.452;6.644;2022-11-27T07:08:24;3.30;77.50
65064;DHT22;51654;51.452;6.644;2022-11-27T07:10:51;3.40;77.50
65064;DHT22;51654;51.452;6.644;2022-11-27T07:13:18;3.40;77.40
65064;DHT22;51654;51.452;6.644;2022-11-27T07:15:44;3.40;77.40
65064;DHT22;51654;51.452;6.644;2022-11-27T07:18:11;3.50;77.30
65064;DHT22;51654;51.452;6.644;2022-11-27T07:20:38;3.50;77.30
65064;DHT22;51654;51.452;6.644;2022-11-27T07:23:05;3.50;77.30
65064;DHT22;51654;51.452;6.644;2022-11-27T07:25:31;3.60;77.30
65064;DHT22;51654;51.452;6.644;2022-11-27T07:27:58;3.60;77.10
65064;DHT22;51654;51.452;6.644;2022-11-27T07:30:25;3.60;77.00
65064;DHT22;51654;51.452;6.644;2022-11-27T07:32:51;3.60;76.90
65064;DHT22;51654;51.452;6.644;2022-11-27T07:35:18;3.70;76.80
65064;DHT22;51654;51.452;6.644;2022-11-27T07:37:45;3.70;76.70
65064;DHT22;51654;51.452;6.644;2022-11-27T07:40:12;3.70;76.70
65064;DHT22;51654;51.452;6.644;2022-11-27T07:42:40;3.70;76.70
65064;DHT22;51654;51.452;6.644;2022-11-27T07:45:08;3.70;76.60
65064;DHT22;51654;51.452;6.644;2022-11-27T07:47:35;3.70;76.70
65064;DHT22;51654;51.452;6.644;2022-11-27T07:50:02;3.80;76.60
65064;DHT22;51654;51.452;6.644;2022-11-27T07:52:29;3.80;76.60
65064;DHT22;51654;51.452;6.644;2022-11-27T07:54:56;3.90;76.40
65064;DHT22;51654;51.452;6.644;2022-11-27T07:57:23;3.90;76.30
65064;DHT22;51654;51.452;6.644;2022-11-27T07:59:49;3.90;76.20
65064;DHT22;51654;51.452;6.644;2022-11-27T08:02:16;3.90;76.20
65064;DHT22;51654;51.452;6.644;2022-11-27T08:04:43;4.00;76.00
65064;DHT22;51654;51.452;6.644;2022-11-27T08:07:10;4.00;75.90
65064;DHT22;51654;51.452;6.644;2022-11-27T08:09:37;4.00;75.90
65064;DHT22;51654;51.452;6.644;2022-11-27T08:12:06;4.00;75.90
65064;DHT22;51654;51.452;6.644;2022-11-27T08:14:33;4.10;75.70
65064;DHT22;51654;51.452;6.644;2022-11-27T08:17:00;4.20;75.60
65064;DHT22;51654;51.452;6.644;2022-11-27T08:19:26;4.20;75.30
65064;DHT22;51654;51.452;6.644;2022-11-27T08:21:53;4.20;75.30
65064;DHT22;51654;51.452;6.644;2022-11-27T08:24:21;4.30;75.30
65064;DHT22;51654;51.452;6.644;2022-11-27T08:26:48;4.40;75.00
65064;DHT22;51654;51.452;6.644;2022-11-27T08:29:15;4.40;74.90
65064;DHT22;51654;51.452;6.644;2022-11-27T08:31:42;4.40;74.80
65064;DHT22;51654;51.452;6.644;2022-11-27T08:34:08;4.40;74.70
65064;DHT22;51654;51.452;6.644;2022-11-27T08:36:35;4.50;74.90
65064;DHT22;51654;51.452;6.644;2022-11-27T08:39:02;4.50;74.70
65064;DHT22;51654;51.452;6.644;2022-11-27T08:41:29;4.50;74.70
65064;DHT22;51654;51.452;6.644;2022-11-27T08:43:55;4.50;74.70
65064;DHT22;51654;51.452;6.644;2022-11-27T08:46:22;4.50;74.70
65064;DHT22;51654;51.452;6.644;2022-11-27T08:48:49;4.60;74.50
65064;DHT22;51654;51.452;6.644;2022-11-27T08:51:16;4.60;74.50
65064;DHT22;51654;51.452;6.644;2022-11-27T08:53:43;4.60;74.40
65064;DHT22;51654;51.452;6.644;2022-11-27T08:56:19;4.60;74.40
65064;DHT22;51654;51.452;6.644;2022-11-27T08:58:46;4.70;74.10
65064;DHT22;51654;51.452;6.644;2022-11-27T09:01:19;4.70;74.00
65064;DHT22;51654;51.452;6.644;2022-11-27T09:03:47;4.70;74.10
65064;DHT22;51654;51.452;6.644;2022-11-27T09:06:17;4.70;74.10
65064;DHT22;51654;51.452;6.644;2022-11-27T09:08:44;4.70;74.10
65064;DHT22;51654;51.452;6.644;2022-11-27T09:11:12;4.80;74.00
65064;DHT22;51654;51.452;6.644;2022-11-27T09:13:40;4.80;73.80
65064;DHT22;51654;51.452;6.644;2022-11-27T09:16:13;4.80;73.80
65064;DHT22;51654;51.452;6.644;2022-11-27T09:18:42;4.90;73.90
65064;DHT22;51654;51.452;6.644;2022-11-27T09:21:09;5.00;73.70
65064;DHT22;51654;51.452;6.644;2022-11-27T09:23:37;5.00;73.40
65064;DHT22;51654;51.452;6.644;2022-11-27T09:26:08;5.00;73.50
65064;DHT22;51654;51.452;6.644;2022-11-27T09:28:36;5.10;73.30
65064;DHT22;51654;51.452;6.644;2022-11-27T09:31:03;5.20;72.90
65064;DHT22;51654;51.452;6.644;2022-11-27T09:33:31;5.20;72.60
65064;DHT22;51654;51.452;6.644;2022-11-27T09:35:58;5.20;72.60
65064;DHT22;51654;51.452;6.644;2022-11-27T09:38:28;5.30;72.70
65064;DHT22;51654;51.452;6.644;2022-11-27T09:40:57;5.40;72.50
65064;DHT22;51654;51.452;6.644;2022-11-27T09:43:29;5.40;72.20
65064;DHT22;51654;51.452;6.644;2022-11-27T09:45:58;5.40;72.00
65064;DHT22;51654;51.452;6.644;2022-11-27T09:48:30;5.40;71.90
65064;DHT22;51654;51.452;6.644;2022-11-27T09:50:58;5.40;72.00
65064;DHT22;51654;51.452;6.644;2022-11-27T09:53:29;5.40;71.90
65064;DHT22;51654;51.452;6.644;2022-11-27T09:55:59;5.40;71.60
65064;DHT22;51654;51.452;6.644;2022-11-27T09:58:36;5.40;71.80
65064;DHT22;51654;51.452;6.644;2022-11-27T10:01:17;5.40;71.80
65064;DHT22;51654;51.452;6.644;2022-11-27T10:03:44;5.40;71.70
65064;DHT22;51654;51.452;6.644;2022-11-27T10:11:30;5.50;71.90
65064;DHT22;51654;51.452;6.644;2022-11-27T10:14:13;5.50;72.20
65064;DHT22;51654;51.452;6.644;2022-11-27T10:16:47;5.50;72.80
65064;DHT22;51654;51.452;6.644;2022-11-27T10:24:27;5.50;73.20
65064;DHT22;51654;51.452;6.644;2022-11-27T10:26:57;5.50;73.40
65064;DHT22;51654;51.452;6.644;2022-11-27T10:29:28;5.50;73.20
65064;DHT22;51654;51.452;6.644;2022-11-27T10:31:58;5.50;73.30
65064;DHT22;51654;51.452;6.644;2022-11-27T10:34:33;5.50;73.30
65064;DHT22;51654;51.452;6.644;2022-11-27T10:37:00;5.50;73.50
65064;DHT22;51654;51.452;6.644;2022-11-27T10:39:39;5.50;73.80
65064;DHT22;51654;51.452;6.644;2022-11-27T10:42:14;5.50;73.50
65064;DHT22;51654;51.452;6.644;2022-11-27T10:44:48;5.50;73.50
65064;DHT22;51654;51.452;6.644;2022-11-27T10:47:16;5.60;73.50
65064;DHT22;51654;51.452;6.644;2022-11-27T10:49:46;5.60;73.30
65064;DHT22;51654;51.452;6.644;2022-11-27T10:52:15;5.70;73.00
65064;DHT22;51654;51.452;6.644;2022-11-27T10:54:46;5.60;73.00
65064;DHT22;51654;51.452;6.644;2022-11-27T11:00:22;5.70;72.60
65064;DHT22;51654;51.452;6.644;2022-11-27T11:03:00;5.70;73.00
65064;DHT22;51654;51.452;6.644;2022-11-27T11:05:28;5.70;73.10
65064;DHT22;51654;51.452;6.644;2022-11-27T11:08:18;5.70;73.10
65064;DHT22;51654;51.452;6.644;2022-11-27T11:10:56;5.80;72.90
65064;DHT22;51654;51.452;6.644;2022-11-27T11:13:29;5.80;72.90
65064;DHT22;51654;51.452;6.644;2022-11-27T11:21:18;6.00;72.00
65064;DHT22;51654;51.452;6.644;2022-11-27T11:26:31;6.00;71.20
65064;DHT22;51654;51.452;6.644;2022-11-27T11:29:02;6.00;70.80
65064;DHT22;51654;51.452;6.644;2022-11-27T11:31:35;6.10;70.60
65064;DHT22;51654;51.452;6.644;2022-11-27T11:34:20;6.10;70.90
65064;DHT22;51654;51.452;6.644;2022-11-27T11:37:07;6.10;70.70
65064;DHT22;51654;51.452;6.644;2022-11-27T11:39:44;6.20;70.10
65064;DHT22;51654;51.452;6.644;2022-11-27T11:42:28;6.20;69.90
65064;DHT22;51654;51.452;6.644;2022-11-27T11:45:14;6.30;69.70
65064;DHT22;51654;51.452;6.644;2022-11-27T11:47:47;6.40;69.90
65064;DHT22;51654;51.452;6.644;2022-11-27T11:53:39;6.50;69.60
65064;DHT22;51654;51.452;6.644;2022-11-27T11:55:56;6.50;69.60
65064;DHT22;51654;51.452;6.644;2022-11-27T12:04:29;6.50;68.70
65064;DHT22;51654;51.452;6.644;2022-11-27T12:07:13;6.60;68.90
65064;DHT22;51654;51.452;6.644;2022-11-27T12:12:12;6.70;67.80
65064;DHT22;51654;51.452;6.644;2022-11-27T12:14:51;6.70;67.80
65064;DHT22;51654;51.452;6.644;2022-11-27T12:20:17;6.70;67.60
65064;DHT22;51654;51.452;6.644;2022-11-27T12:31:46;6.80;66.80
65064;DHT22;51654;51.452;6.644;2022-11-27T12:39:37;6.90;66.70
65064;DHT22;51654;51.452;6.644;2022-11-27T12:47:25;6.90;66.40
65064;DHT22;51654;51.452;6.644;2022-11-27T12:49:54;6.90;66.10
65064;DHT22;51654;51.452;6.644;2022-11-27T12:55:21;6.90;66.00
65064;DHT22;51654;51.452;6.644;2022-11-27T12:58:08;7.00;65.80
65064;DHT22;51654;51.452;6.644;2022-11-27T13:00:37;7.00;65.90
65064;DHT22;51654;51.452;6.644;2022-11-27T13:08:19;7.10;65.60
65064;DHT22;51654;51.452;6.644;2022-11-27T13:10:54;7.10;65.50
65064;DHT22;51654;51.452;6.644;2022-11-27T13:13:23;7.10;65.30
65064;DHT22;51654;51.452;6.644;2022-11-27T13:15:55;7.10;65.10
65064;DHT22;51654;51.452;6.644;2022-11-27T13:18:34;7.20;64.70
65064;DHT22;51654;51.452;6.644;2022-11-27T13:21:02;7.20;64.70
65064;DHT22;51654;51.452;6.644;2022-11-27T13:23:32;7.10;64.40
65064;DHT22;51654;51.452;6.644;2022-11-27T13:26:00;7.20;64.30
65064;DHT22;51654;51.452;6.644;2022-11-27T13:47:41;7.00;64.40
65064;DHT22;51654;51.452;6.644;2022-11-27T13:50:12;7.40;65.00
65064;DHT22;51654;51.452;6.644;2022-11-27T13:52:49;7.40;64.70
65064;DHT22;51654;51.452;6.644;2022-11-27T13:55:26;7.30;65.20
65064;DHT22;51654;51.452;6.644;2022-11-27T13:57:54;7.20;65.80
65064;DHT22;51654;51.452;6.644;2022-11-27T14:03:00;7.10;66.70
65064;DHT22;51654;51.452;6.644;2022-11-27T14:05:40;7.10;66.80
65064;DHT22;51654;51.452;6.644;2022-11-27T14:08:24;7.10;66.70
65064;DHT22;51654;51.452;6.644;2022-11-27T14:10:53;7.00;67.00
65064;DHT22;51654;51.452;6.644;2022-11-27T14:13:21;7.00;66.80
65064;DHT22;51654;51.452;6.644;2022-11-27T14:15:59;7.00;66.60
65064;DHT22;51654;51.452;6.644;2022-11-27T14:18:30;6.90;66.90
65064;DHT22;51654;51.452;6.644;2022-11-27T14:26:04;7.10;66.90
65064;DHT22;51654;51.452;6.644;2022-11-27T14:28:39;7.10;67.00
65064;DHT22;51654;51.452;6.644;2022-11-27T14:33:52;7.00;66.70
65064;DHT22;51654;51.452;6.644;2022-11-27T14:36:39;7.00;67.00
65064;DHT22;51654;51.452;6.644;2022-11-27T14:39:05;7.00;67.20
65064;DHT22;51654;51.452;6.644;2022-11-27T14:41:32;6.90;67.10
65064;DHT22;51654;51.452;6.644;2022-11-27T14:43:59;6.90;67.10
65064;DHT22;51654;51.452;6.644;2022-11-27T14:46:26;6.90;67.40
65064;DHT22;51654;51.452;6.644;2022-11-27T14:48:54;6.90;67.10
65064;DHT22;51654;51.452;6.644;2022-11-27T14:51:23;6.90;67.20
65064;DHT22;51654;51.452;6.644;2022-11-27T14:53:51;6.80;67.50
65064;DHT22;51654;51.452;6.644;2022-11-27T14:56:19;6.80;67.80
65064;DHT22;51654;51.452;6.644;2022-11-27T14:58:50;6.70;68.30
65064;DHT22;51654;51.452;6.644;2022-11-27T15:01:29;6.70;68.30
65064;DHT22;51654;51.452;6.644;2022-11-27T15:04:05;6.70;67.70
65064;DHT22;51654;51.452;6.644;2022-11-27T15:06:39;6.70;67.40
65064;DHT22;51654;51.452;6.644;2022-11-27T15:09:17;6.70;67.40
65064;DHT22;51654;51.452;6.644;2022-11-27T15:15:07;6.70;67.60
65064;DHT22;51654;51.452;6.644;2022-11-27T15:17:36;6.70;67.00
65064;DHT22;51654;51.452;6.644;2022-11-27T15:20:12;6.70;67.00
65064;DHT22;51654;51.452;6.644;2022-11-27T15:22:48;6.70;67.10
65064;DHT22;51654;51.452;6.644;2022-11-27T15:28:02;6.60;66.70
65064;DHT22;51654;51.452;6.644;2022-11-27T15:30:45;6.70;66.70
65064;DHT22;51654;51.452;6.644;2022-11-27T15:33:26;6.60;66.30
65064;DHT22;51654;51.452;6.644;2022-11-27T15:36:17;6.60;66.20
65064;DHT22;51654;51.452;6.644;2022-11-27T15:38:44;6.60;66.30
65064;DHT22;51654;51.452;6.644;2022-11-27T15:41:27;6.70;66.30
65064;DHT22;51654;51.452;6.644;2022-11-27T15:43:54;6.70;66.20
65064;DHT22;51654;51.452;6.644;2022-11-27T15:46:29;6.70;66.40
65064;DHT22;51654;51.452;6.644;2022-11-27T15:48:56;6.70;65.90
65064;DHT22;51654;51.452;6.644;2022-11-27T15:51:23;6.70;65.70
65064;DHT22;51654;51.452;6.644;2022-11-27T15:53:50;6.80;66.00
65064;DHT22;51654;51.452;6.644;2022-11-27T15:56:17;6.80;66.10
65064;DHT22;51654;51.452;6.644;2022-11-27T15:58:44;6.70;65.70
65064;DHT22;51654;51.452;6.644;2022-11-27T16:01:11;6.80;65.60
65064;DHT22;51654;51.452;6.644;2022-11-27T16:03:38;6.80;65.60
65064;DHT22;51654;51.452;6.644;2022-11-27T16:06:07;6.80;65.60
65064;DHT22;51654;51.452;6.644;2022-11-27T16:08:34;6.80;65.80
65064;DHT22;51654;51.452;6.644;2022-11-27T16:11:04;6.80;65.80
65064;DHT22;51654;51.452;6.644;2022-11-27T16:13:32;6.80;65.80
65064;DHT22;51654;51.452;6.644;2022-11-27T16:16:04;6.70;65.90
65064;DHT22;51654;51.452;6.644;2022-11-27T16:18:31;6.70;66.20
65064;DHT22;51654;51.452;6.644;2022-11-27T16:21:06;6.60;66.40
65064;DHT22;51654;51.452;6.644;2022-11-27T16:23:34;6.60;66.60
65064;DHT22;51654;51.452;6.644;2022-11-27T16:26:03;6.50;66.80
65064;DHT22;51654;51.452;6.644;2022-11-27T16:28:31;6.50;67.20
65064;DHT22;51654;51.452;6.644;2022-11-27T16:31:00;6.50;67.50
65064;DHT22;51654;51.452;6.644;2022-11-27T16:33:28;6.50;67.60
65064;DHT22;51654;51.452;6.644;2022-11-27T16:36:02;6.50;67.80
65064;DHT22;51654;51.452;6.644;2022-11-27T16:38:29;6.40;68.00
65064;DHT22;51654;51.452;6.644;2022-11-27T16:41:00;6.40;68.10
65064;DHT22;51654;51.452;6.644;2022-11-27T16:43:27;6.40;68.10
65064;DHT22;51654;51.452;6.644;2022-11-27T16:46:06;6.30;68.30
65064;DHT22;51654;51.452;6.644;2022-11-27T16:48:35;6.30;68.70
65064;DHT22;51654;51.452;6.644;2022-11-27T16:53:38;6.20;68.90
65064;DHT22;51654;51.452;6.644;2022-11-27T16:56:07;6.20;69.30
65064;DHT22;51654;51.452;6.644;2022-11-27T16:58:37;6.20;69.70
65064;DHT22;51654;51.452;6.644;2022-11-27T17:01:05;6.20;69.70
65064;DHT22;51654;51.452;6.644;2022-11-27T17:03:32;6.10;69.90
65064;DHT22;51654;51.452;6.644;2022-11-27T17:06:00;6.10;69.90
65064;DHT22;51654;51.452;6.644;2022-11-27T17:08:31;6.00;69.90
65064;DHT22;51654;51.452;6.644;2022-11-27T17:11:10;6.10;70.10
65064;DHT22;51654;51.452;6.644;2022-11-27T17:13:37;6.00;70.20
65064;DHT22;51654;51.452;6.644;2022-11-27T17:16:05;6.00;70.00
65064;DHT22;51654;51.452;6.644;2022-11-27T17:18:34;6.00;70.00
65064;DHT22;51654;51.452;6.644;2022-11-27T17:21:03;6.00;70.10
65064;DHT22;51654;51.452;6.644;2022-11-27T17:23:31;6.00;70.40
65064;DHT22;51654;51.452;6.644;2022-11-27T17:26:07;6.00;70.10
65064;DHT22;51654;51.452;6.644;2022-11-27T17:28:35;6.00;70.40
65064;DHT22;51654;51.452;6.644;2022-11-27T17:31:08;6.00;70.60
65064;DHT22;51654;51.452;6.644;2022-11-27T17:33:35;6.00;70.70
65064;DHT22;51654;51.452;6.644;2022-11-27T17:36:02;6.00;70.60
65064;DHT22;51654;51.452;6.644;2022-11-27T17:38:30;6.00;70.90
65064;DHT22;51654;51.452;6.644;2022-11-27T17:41:04;6.00;71.40
65064;DHT22;51654;51.452;6.644;2022-11-27T17:43:35;6.00;71.10
65064;DHT22;51654;51.452;6.644;2022-11-27T17:46:08;6.00;71.00
65064;DHT22;51654;51.452;6.644;2022-11-27T17:48:35;6.00;70.70
65064;DHT22;51654;51.452;6.644;2022-11-27T17:51:04;6.00;70.60
65064;DHT22;51654;51.452;6.644;2022-11-27T17:53:31;6.00;70.70
65064;DHT22;51654;51.452;6.644;2022-11-27T17:56:03;6.00;70.40
65064;DHT22;51654;51.452;6.644;2022-11-27T17:58:31;6.10;70.30